Main page
METAR-TAF:

METAR-TAF

Airports :

Cambridge Airport

Cambridge, England

latitude: 52-12N, longitude: 000-11E, elevation: 15 m

Current weather observation

The report was made 9 hours and 58 minutes ago, at 16:50 UTC
Wind 14 kt from the West/Southwest
Temperature 23°C
Humidity 53%
Pressure 1017 hPa
Visibility 10 km or more
Few clouds at a height of 4000 ft

METAR: EGSC 181650Z 25014KT 9999 FEW040 23/13 Q1017

Time: 03:48 (02:48 UTC)

Forecast

The report was made 12 hours and 54 minutes ago, at 13:54 UTC
Forecast valid from 18 at 15 UTC to 18 at 19 UTC
Wind 12 kt from the West
Visibility 10 km or more
Scattered clouds at a height of 3500 ft

TAF: EGSC 181354Z 1815/1819 27012KT 9999 SCT035

Weather observations and forecasts of more than 4000 airports (METAR and TAF reports).

The available stations are represented by yellow and red dots on the map.

Hover mouse over dot to see the name of the station.

Then click to see weather observations and forecasts.

To change the map : click on the green buttons with a black cross to zoom in, on the green button with a dash to zoom out, or on the green arrows for adjacent maps.


METAR-TAF: